Petit vol en simu entre les Asturies LEAS et Vitoria LEVT avant un vol réel vers 13h qui me semble compromis avec les bourrasques...

METAR: LFPN 090830Z AUTO 22015KT 9999 BKN018 BKN024 OVC035 08/05 Q1011 TEMPO 22015G30KT SCT025TCU=
TAF COURT: LFPN 090800Z 0909/0918 22015KT 9999 BKN020 TEMPO 0910/0914 22015G30KT -SHRA SCT025TCU=